Aeroporto :
LOGIN :

Iscrizione | Disclaimer

   EN    FR    IT 

 










Sommario :    VFR   VFR Marginale   IFR   IFR Intensivo   IFR Molto Intensivo
Visibilità : 
Base nubi : 
>= 8 km
>= 3000ft
5 / 8 km
1000 / 3000 ft
1500m / 5 km
500 / 1000 ft
800 / 1500m
200 / 500 ft
< 800m
< 200 ft
Simboli :   Temporali  Nebbia  Neve Forte  Precipitazioni Forti  Vento > 20 kt
SIGMETs :   Varie  Temporali  Ghiacco  Turbolenza  Onda orograficha  Ceneri Vulcaniche







- Altitudine del aeroporto : 1768 ft


LEHC - Huesca Pirineos

ULTIMO METAR :
  • 221000Z 10008KT 060V140 CAVOK 32/09 Q1024

METARs OBSOLETI :
  • 220930Z 07008KT 030V100 CAVOK 31/09 Q1024
  • 220900Z 07006KT 020V120 CAVOK 31/12 Q1024
  • 220830Z 08006KT 030V110 CAVOK 30/11 Q1024
  • 220800Z 08004KT 040V110 CAVOK 28/14 Q1024
  • 220730Z VRB02KT CAVOK 27/14 Q1024

TAF TAF LEHC
Valido dal 22 a 09 ore il 23 a 09 ore UTC


220800Z 2209/2309 12010KT 9999 FEW040 TX38/2215Z TN21/2305Z
TEMPO 2215/2219 14015G25KT
BECMG 2220/2222 08012KT
BECMG 2303/2304 09006KT
Nessun NOTAM noto per questo aeroporto.



MetMap, La meteo Aeronautica in un colpo d'occhio ! - Copyright ORBIFLY Dicembre 2007 - Disclaimer

ORBIFLY MET'MAP TEAM :

Programmazione e sviluppo : Alexandra Zaïnal
Concezione e sviluppo : Baudouin d'Aumeries
Co-Programmazione e sviluppo : Marc-Olivier Méhu
Supporto tecnico e logistico : Manuel Goepfert
Aiuto per la traduzione : Arnaldo La Scala

Contatto : metmap@orbifly.com




FONTI E CREDITI :

   NOAA